createdAt,value
2022-12-11T00:03:33.905Z,-2.92
2022-12-11T00:08:37.033Z,-2.98
2022-12-11T00:13:39.786Z,-3.02
2022-12-11T00:18:43.012Z,-3.06
2022-12-11T00:23:45.784Z,-3.09
2022-12-11T00:28:48.685Z,-3.12
2022-12-11T00:33:51.605Z,-3.16
2022-12-11T00:38:54.801Z,-3.15
2022-12-11T00:43:57.674Z,-3.12
2022-12-11T00:49:00.468Z,-3.08
2022-12-11T00:54:03.628Z,-3.09
2022-12-11T00:59:06.642Z,-3.13
2022-12-11T01:04:09.462Z,-3.20
2022-12-11T01:09:30.989Z,-3.33
2022-12-11T01:14:33.787Z,-3.47
2022-12-11T01:19:38.958Z,-3.53
2022-12-11T01:24:41.717Z,-3.53
2022-12-11T01:29:44.491Z,-3.51
2022-12-11T01:34:47.277Z,-3.48
2022-12-11T01:39:50.036Z,-3.50
2022-12-11T01:45:19.097Z,-3.56
2022-12-11T01:50:21.915Z,-3.64
2022-12-11T01:55:24.854Z,-3.67
2022-12-11T02:00:27.717Z,-3.75
2022-12-11T02:05:30.625Z,-3.82
2022-12-11T02:11:04.570Z,-3.85
2022-12-11T02:16:20.635Z,-3.88
2022-12-11T02:21:29.109Z,-3.96
2022-12-11T02:27:02.118Z,-4.02
2022-12-11T02:32:19.513Z,-4.06
2022-12-11T02:37:28.422Z,-4.04
2022-12-11T02:42:34.322Z,-4.00
2022-12-11T02:47:39.467Z,-4.01
2022-12-11T02:52:44.923Z,-4.07
2022-12-11T02:57:53.287Z,-4.13
2022-12-11T03:02:57.423Z,-4.09
2022-12-11T03:08:00.275Z,-4.05
2022-12-11T03:13:04.728Z,-4.02
2022-12-11T03:18:19.104Z,-3.99
2022-12-11T03:23:38.274Z,-3.95
2022-12-11T03:28:47.042Z,-4.03
2022-12-11T03:33:54.754Z,-4.09
2022-12-11T03:39:15.565Z,-4.14
2022-12-11T03:44:20.918Z,-4.25
2022-12-11T03:49:29.199Z,-4.29
2022-12-11T03:54:35.019Z,-4.31
2022-12-11T03:59:38.142Z,-4.36
2022-12-11T04:04:42.067Z,-4.35
2022-12-11T04:09:44.882Z,-4.29
2022-12-11T04:15:02.898Z,-4.28
2022-12-11T04:20:26.684Z,-4.42
2022-12-11T04:25:29.463Z,-4.57
2022-12-11T04:30:34.279Z,-4.64
2022-12-11T04:35:37.492Z,-4.62
2022-12-11T04:40:40.339Z,-4.59
2022-12-11T04:45:43.138Z,-4.59
2022-12-11T04:50:46.499Z,-4.59
2022-12-11T04:55:49.317Z,-4.51
2022-12-11T05:00:52.494Z,-4.55
2022-12-11T05:05:55.260Z,-4.69
2022-12-11T05:11:00.088Z,-4.72
2022-12-11T05:16:09.281Z,-4.71
2022-12-11T05:21:13.872Z,-4.68
2022-12-11T05:26:20.077Z,-4.67
2022-12-11T05:31:26.376Z,-4.71
2022-12-11T05:36:32.288Z,-4.76
2022-12-11T05:41:35.101Z,-4.78
2022-12-11T05:46:37.924Z,-4.75
2022-12-11T05:51:41.469Z,-4.69
2022-12-11T05:56:44.307Z,-4.67
2022-12-11T06:01:47.353Z,-4.73
2022-12-11T06:06:50.596Z,-4.77
2022-12-11T06:11:53.356Z,-4.80
2022-12-11T06:16:56.103Z,-4.85
2022-12-11T06:21:58.904Z,-4.88
2022-12-11T06:27:01.754Z,-4.88
2022-12-11T06:32:04.714Z,-4.83
2022-12-11T06:37:07.583Z,-4.82
2022-12-11T06:42:10.547Z,-4.80
2022-12-11T06:47:13.299Z,-4.69
2022-12-11T06:52:18.556Z,-4.66
2022-12-11T06:57:22.528Z,-4.62
2022-12-11T07:02:25.341Z,-4.60
2022-12-11T07:07:28.201Z,-4.58
2022-12-11T07:12:31.037Z,-4.57
2022-12-11T07:17:33.826Z,-4.55
2022-12-11T07:22:39.325Z,-4.52
2022-12-11T07:27:46.033Z,-4.49
2022-12-11T07:32:48.901Z,-4.44
2022-12-11T07:37:53.035Z,-4.42
2022-12-11T07:42:56.048Z,-4.47
2022-12-11T07:47:59.327Z,-4.56
2022-12-11T07:53:04.041Z,-4.61
2022-12-11T07:58:07.535Z,-4.64
2022-12-11T08:03:10.949Z,-4.57
2022-12-11T08:08:13.785Z,-4.56
2022-12-11T08:13:16.682Z,-4.51
2022-12-11T08:18:21.241Z,-4.51
2022-12-11T08:23:24.003Z,-4.57
2022-12-11T08:28:27.411Z,-4.52
2022-12-11T08:33:33.089Z,-4.54
2022-12-11T08:38:36.211Z,-4.55
2022-12-11T08:43:39.002Z,-4.51
2022-12-11T08:48:43.249Z,-4.42
2022-12-11T08:53:46.553Z,-4.30
2022-12-11T08:58:50.910Z,-4.27
2022-12-11T09:03:57.754Z,-4.27
2022-12-11T09:09:02.722Z,-4.32
2022-12-11T09:14:08.002Z,-4.38
2022-12-11T09:19:15.153Z,-4.47
2022-12-11T09:24:18.072Z,-4.53
2022-12-11T09:29:23.352Z,-4.55
2022-12-11T09:34:29.405Z,-4.62
2022-12-11T09:39:33.453Z,-4.64
2022-12-11T09:44:46.506Z,-4.71
2022-12-11T09:49:56.973Z,-4.75
2022-12-11T09:55:03.483Z,-4.74
2022-12-11T10:00:15.123Z,-4.71
2022-12-11T10:05:27.812Z,-4.69
2022-12-11T10:11:09.276Z,-4.75
2022-12-11T10:16:23.437Z,-4.76
2022-12-11T10:21:27.543Z,-4.83
2022-12-11T10:26:30.601Z,-4.84
2022-12-11T10:31:42.485Z,-4.81
2022-12-11T10:36:47.299Z,-4.82
2022-12-11T10:41:53.951Z,-4.77
2022-12-11T10:47:06.222Z,-4.69
2022-12-11T10:52:27.496Z,-4.77
2022-12-11T10:57:39.843Z,-4.78
2022-12-11T11:02:46.533Z,-4.76
2022-12-11T11:07:49.536Z,-4.76
2022-12-11T11:13:01.664Z,-4.74
2022-12-11T11:18:25.511Z,-4.80
2022-12-11T11:23:29.057Z,-4.77
2022-12-11T11:28:41.696Z,-4.76
2022-12-11T11:34:05.693Z,-4.81
2022-12-11T11:39:11.425Z,-4.91
2022-12-11T11:44:19.530Z,-4.98
2022-12-11T11:49:51.231Z,-4.98
2022-12-11T11:55:22.034Z,-4.96
2022-12-11T12:00:33.626Z,-4.96
2022-12-11T12:06:12.034Z,-4.94
2022-12-11T12:11:35.943Z,-4.83
2022-12-11T12:17:03.314Z,-4.74
2022-12-11T12:22:43.945Z,-4.72
2022-12-11T12:28:03.404Z,-4.82
2022-12-11T12:33:42.972Z,-4.87
2022-12-11T12:38:59.318Z,-4.91
2022-12-11T12:44:14.446Z,-4.89
2022-12-11T12:49:36.714Z,-4.89
2022-12-11T12:54:42.885Z,-4.93
2022-12-11T12:59:54.471Z,-5.04
2022-12-11T13:05:18.546Z,-5.11
2022-12-11T13:10:43.359Z,-5.11
2022-12-11T13:15:47.173Z,-5.12
2022-12-11T13:20:51.215Z,-5.10
2022-12-11T13:25:59.945Z,-5.08
2022-12-11T13:31:15.388Z,-5.03
2022-12-11T13:36:24.128Z,-5.02
2022-12-11T13:41:30.510Z,-5.02
2022-12-11T13:46:37.562Z,-5.06
2022-12-11T13:51:41.913Z,-5.06
2022-12-11T13:56:55.461Z,-5.04
2022-12-11T14:02:03.308Z,-5.06
2022-12-11T14:07:10.908Z,-5.05
2022-12-11T14:12:20.815Z,-5.02
2022-12-11T14:17:30.190Z,-5.04
2022-12-11T14:22:34.574Z,-5.03
2022-12-11T14:27:37.622Z,-5.02
2022-12-11T14:32:44.769Z,-4.99
2022-12-11T14:37:48.376Z,-4.96
2022-12-11T14:43:00.579Z,-4.93
2022-12-11T14:48:13.564Z,-4.91
2022-12-11T14:53:33.953Z,-4.92
2022-12-11T14:58:51.162Z,-4.90
2022-12-11T15:04:15.639Z,-4.89
2022-12-11T15:09:34.037Z,-4.85
2022-12-11T15:15:02.635Z,-4.86
2022-12-11T15:20:09.417Z,-4.82
2022-12-11T15:25:25.704Z,-4.81
2022-12-11T15:30:36.007Z,-4.81
2022-12-11T15:35:40.803Z,-4.83
2022-12-11T15:40:45.166Z,-4.76
2022-12-11T15:45:48.073Z,-4.73
2022-12-11T15:50:50.932Z,-4.72
2022-12-11T15:55:54.197Z,-4.71
2022-12-11T16:00:58.082Z,-4.72
2022-12-11T16:06:01.077Z,-4.68
2022-12-11T16:11:04.109Z,-4.64
2022-12-11T16:16:09.696Z,-4.64
2022-12-11T16:21:21.615Z,-4.59
2022-12-11T16:26:24.821Z,-4.61
2022-12-11T16:31:27.816Z,-4.58
2022-12-11T16:36:33.105Z,-4.53
2022-12-11T16:41:38.023Z,-4.52
2022-12-11T16:46:42.637Z,-4.50
2022-12-11T16:51:45.561Z,-4.47
2022-12-11T16:56:48.541Z,-4.49
2022-12-11T17:01:53.436Z,-4.52
2022-12-11T17:06:56.783Z,-4.56
2022-12-11T17:11:59.718Z,-4.58
2022-12-11T17:17:02.849Z,-4.59
2022-12-11T17:22:05.721Z,-4.57
2022-12-11T17:27:08.817Z,-4.52
2022-12-11T17:32:11.723Z,-4.52
2022-12-11T17:37:14.627Z,-4.51
2022-12-11T17:42:17.542Z,-4.54
2022-12-11T17:47:22.017Z,-4.51
2022-12-11T17:52:27.350Z,-4.50
2022-12-11T17:57:38.400Z,-4.51
2022-12-11T18:02:42.086Z,-4.52
2022-12-11T18:07:47.090Z,-4.51
2022-12-11T18:12:53.176Z,-4.54
2022-12-11T18:17:59.009Z,-4.49
2022-12-11T18:23:02.568Z,-4.45
2022-12-11T18:28:05.653Z,-4.39
2022-12-11T18:33:09.166Z,-4.40
2022-12-11T18:38:12.716Z,-4.41
2022-12-11T18:43:15.495Z,-4.43
2022-12-11T18:48:18.272Z,-4.40
2022-12-11T18:53:21.192Z,-4.34
2022-12-11T18:58:24.135Z,-4.30
2022-12-11T19:03:26.983Z,-4.28
2022-12-11T19:08:30.269Z,-4.27
2022-12-11T19:13:33.623Z,-4.22
2022-12-11T19:18:36.830Z,-4.24
2022-12-11T19:23:40.388Z,-4.21
2022-12-11T19:28:43.605Z,-4.16
2022-12-11T19:33:47.578Z,-4.10
2022-12-11T19:39:00.935Z,-4.03
2022-12-11T19:44:05.141Z,-3.95
2022-12-11T19:49:08.975Z,-3.90
2022-12-11T19:54:19.163Z,-3.91
2022-12-11T19:59:22.312Z,-3.92
2022-12-11T20:04:25.499Z,-3.90
2022-12-11T20:09:33.439Z,-3.91
2022-12-11T20:14:37.552Z,-3.85
2022-12-11T20:19:41.067Z,-3.82
2022-12-11T20:24:44.613Z,-3.73
2022-12-11T20:29:47.479Z,-3.69
2022-12-11T20:34:55.234Z,-3.65
2022-12-11T20:39:58.629Z,-3.58
2022-12-11T20:45:04.579Z,-3.55
2022-12-11T20:50:09.187Z,-3.50
2022-12-11T20:55:12.186Z,-3.45
2022-12-11T21:00:16.306Z,-3.41
2022-12-11T21:05:19.260Z,-3.36
2022-12-11T21:10:22.722Z,-3.27
2022-12-11T21:15:25.567Z,-3.19
2022-12-11T21:20:28.450Z,-3.16
2022-12-11T21:25:31.267Z,-3.13
2022-12-11T21:30:34.225Z,-3.04
2022-12-11T21:35:36.994Z,-2.96
2022-12-11T21:40:42.584Z,-2.91
2022-12-11T21:46:02.834Z,-2.85
2022-12-11T21:51:18.783Z,-2.79
2022-12-11T21:56:23.356Z,-2.72
2022-12-11T22:01:30.734Z,-2.66
2022-12-11T22:06:34.220Z,-2.61
2022-12-11T22:11:37.093Z,-2.60
2022-12-11T22:16:40.049Z,-2.54
2022-12-11T22:21:42.904Z,-2.47
2022-12-11T22:26:45.710Z,-2.45
2022-12-11T22:31:48.565Z,-2.42
2022-12-11T22:36:51.442Z,-2.37
2022-12-11T22:41:54.332Z,-2.30
2022-12-11T22:46:57.588Z,-2.25
2022-12-11T22:52:00.470Z,-2.18
2022-12-11T22:57:03.562Z,-2.12
2022-12-11T23:02:07.277Z,-2.03
2022-12-11T23:07:10.440Z,-1.98
2022-12-11T23:12:13.234Z,-1.94
2022-12-11T23:17:15.988Z,-1.89
2022-12-11T23:22:18.811Z,-1.83
2022-12-11T23:27:22.221Z,-1.78
2022-12-11T23:32:25.100Z,-1.77
2022-12-11T23:37:27.901Z,-1.77
2022-12-11T23:42:30.716Z,-1.75
2022-12-11T23:47:33.490Z,-1.70
2022-12-11T23:52:36.296Z,-1.65
2022-12-11T23:57:39.085Z,-1.61
